Time;durP1;ratioP1;P1;durP2;ratioP2;P2;SDS_P1;SDS_P2;PMS_P1;PMS_P2;Temp;Humidity;BMP_temperature;BMP_pressure;BME280_temperature;BME280_humidity;BME280_pressure;Samples;Min_cycle;Max_cycle;Signal;HPM_P1;HPM_P2
2021/09/22 00:02:17;;;;;;;9.60;7.90;;;;;;;10.67;81.25;103036.66;5055327;28;20025;-36
2021/09/22 00:04:42;;;;;;;11.17;8.43;;;;;;;10.65;82.66;103041.44;5055230;28;20104;-35
2021/09/22 00:07:08;;;;;;;10.37;8.37;;;;;;;10.56;82.97;103027.09;5071451;28;20032;-35
2021/09/22 00:09:33;;;;;;;11.05;8.40;;;;;;;10.62;83.17;103041.78;5055339;28;20134;-35
2021/09/22 00:11:58;;;;;;;10.90;8.17;;;;;;;10.58;82.61;103035.88;5055591;28;20028;-35
2021/09/22 00:14:24;;;;;;;11.85;8.00;;;;;;;10.63;82.46;103036.16;5054983;28;20107;-35
2021/09/22 00:16:49;;;;;;;12.33;8.30;;;;;;;10.53;82.95;103032.84;5054455;28;20053;-36
2021/09/22 00:19:15;;;;;;;9.65;7.53;;;;;;;10.45;83.05;103025.63;5054987;28;20484;-35
2021/09/22 00:21:40;;;;;;;11.38;8.88;;;;;;;10.41;83.10;103018.88;5055782;28;20032;-35
2021/09/22 00:24:06;;;;;;;10.37;9.27;;;;;;;10.43;82.89;103022.25;5054998;28;20047;-35
2021/09/22 00:26:31;;;;;;;10.43;8.35;;;;;;;10.40;83.32;103019.09;5054982;28;20035;-35
2021/09/22 00:28:57;;;;;;;10.27;8.40;;;;;;;10.40;83.28;103027.19;5054841;28;20154;-35
2021/09/22 00:31:22;;;;;;;10.67;8.30;;;;;;;10.35;82.62;103016.91;5055253;28;20342;-35
2021/09/22 00:33:47;;;;;;;12.10;8.05;;;;;;;10.41;82.89;103031.56;5055065;28;20029;-35
2021/09/22 00:36:13;;;;;;;12.00;8.20;;;;;;;10.39;82.75;103036.31;5054748;28;20020;-35
2021/09/22 00:38:40;;;;;;;10.10;8.00;;;;;;;10.35;82.84;103027.72;5053754;28;20028;-35
2021/09/22 00:41:05;;;;;;;10.15;8.57;;;;;;;10.35;83.53;103033.13;5055229;28;20029;-36
2021/09/22 00:43:30;;;;;;;10.27;8.52;;;;;;;10.32;82.79;103028.06;5054671;28;20021;-36
2021/09/22 00:46:04;;;;;;;10.02;8.10;;;;;;;10.33;82.72;103027.03;5054580;28;20467;-36
2021/09/22 00:48:31;;;;;;;10.38;9.05;;;;;;;10.24;82.90;103028.94;5054893;28;20086;-36
2021/09/22 00:50:56;;;;;;;11.93;8.75;;;;;;;10.23;82.75;103037.19;5054878;28;20025;-35
2021/09/22 00:53:22;;;;;;;11.23;8.75;;;;;;;10.26;83.21;103036.88;5054144;28;20025;-35
2021/09/22 00:55:48;;;;;;;12.37;8.43;;;;;;;10.25;83.76;103025.22;5054529;28;20104;-35
2021/09/22 00:58:13;;;;;;;;;;;;;;;10.42;81.58;103034.09;5054799;28;20078;-35
2021/09/22 01:00:39;;;;;;;9.50;7.90;;;;;;;10.16;82.42;103014.59;5053853;28;20341;-35
2021/09/22 01:03:05;;;;;;;11.43;9.03;;;;;;;10.20;82.90;103042.94;5054515;28;20331;-35
2021/09/22 01:05:31;;;;;;;13.20;8.60;;;;;;;10.19;83.08;103035.84;5054100;28;20017;-35
2021/09/22 01:07:57;;;;;;;10.07;8.80;;;;;;;10.09;82.61;103027.94;5053156;28;20032;-35
2021/09/22 01:10:22;;;;;;;11.48;8.88;;;;;;;10.02;80.80;103032.38;5053635;28;20029;-35
2021/09/22 01:12:48;;;;;;;10.98;9.35;;;;;;;9.94;82.98;103016.19;5053760;28;20515;-35
2021/09/22 01:15:29;;;;;;;8.98;7.97;;;;;;;10.01;82.87;103026.13;5053678;28;20523;-35
2021/09/22 01:17:55;;;;;;;9.80;8.00;;;;;;;9.89;81.88;103029.38;5053919;28;20493;-35
2021/09/22 01:20:21;;;;;;;9.60;8.13;;;;;;;9.88;82.76;103020.41;5054036;28;20315;-35
2021/09/22 01:22:46;;;;;;;11.23;8.60;;;;;;;9.88;82.75;103023.13;5054028;28;20065;-35
2021/09/22 01:25:13;;;;;;;11.20;8.53;;;;;;;9.86;82.64;103014.34;5053784;28;20024;-35
2021/09/22 01:27:49;;;;;;;11.43;9.23;;;;;;;9.84;83.34;103015.53;5054232;28;20517;-35
2021/09/22 01:30:15;;;;;;;10.00;8.02;;;;;;;9.77;83.43;103007.28;5053968;28;20040;-35
2021/09/22 01:32:48;;;;;;;;;;;;;;;9.98;81.59;103021.06;5054293;28;20032;-35
2021/09/22 01:35:13;;;;;;;10.82;8.93;;;;;;;9.67;82.80;102999.38;5053118;28;20337;-36
2021/09/22 01:37:38;;;;;;;12.03;8.33;;;;;;;9.75;82.76;103018.25;5053285;28;20058;-35
2021/09/22 01:40:05;;;;;;;9.03;7.77;;;;;;;9.78;83.09;103017.06;5053210;28;20049;-36
2021/09/22 01:42:30;;;;;;;9.93;8.45;;;;;;;9.77;83.64;103015.41;5054030;28;20104;-35
2021/09/22 01:44:55;;;;;;;10.43;8.43;;;;;;;9.77;83.09;103000.03;5053420;28;20040;-35
2021/09/22 01:47:20;;;;;;;12.10;9.07;;;;;;;9.81;82.93;103005.94;5053810;28;20025;-35
2021/09/22 01:49:46;;;;;;;10.10;8.97;;;;;;;9.73;83.90;103012.19;5053476;28;20029;-35
2021/09/22 01:52:11;;;;;;;10.70;8.57;;;;;;;9.59;83.48;102996.69;5053425;28;20020;-35
2021/09/22 01:54:36;;;;;;;10.73;8.47;;;;;;;9.65;83.59;103008.66;5053341;28;20025;-35
2021/09/22 01:57:02;;;;;;;10.53;8.80;;;;;;;9.62;83.50;103003.63;5053035;28;20013;-35
2021/09/22 01:59:28;;;;;;;12.43;8.55;;;;;;;9.50;84.21;102993.16;5052892;28;20350;-35
2021/09/22 02:01:53;;;;;;;12.00;9.13;;;;;;;9.61;83.11;103004.59;5054041;28;20052;-35
2021/09/22 02:04:18;;;;;;;11.53;9.57;;;;;;;9.50;81.26;103003.94;5053775;28;20442;-35
2021/09/22 02:06:44;;;;;;;13.20;9.87;;;;;;;9.43;83.88;102980.50;5053188;28;20094;-35
2021/09/22 02:09:09;;;;;;;10.67;8.77;;;;;;;9.47;83.50;102985.41;5053059;28;20454;-35
2021/09/22 02:11:34;;;;;;;10.43;9.33;;;;;;;9.50;82.85;102992.31;5053129;28;20407;-35
2021/09/22 02:14:00;;;;;;;11.63;10.03;;;;;;;9.49;82.73;103004.97;5052976;28;20028;-35
2021/09/22 02:16:25;;;;;;;12.27;9.30;;;;;;;9.47;83.39;102998.06;5052993;28;20129;-35
2021/09/22 02:18:51;;;;;;;11.30;9.27;;;;;;;9.35;83.54;102981.34;5053681;28;20116;-35
2021/09/22 02:21:17;;;;;;;12.35;9.52;;;;;;;9.43;83.54;102999.41;5053028;28;20473;-35
2021/09/22 02:23:42;;;;;;;12.45;9.27;;;;;;;9.46;83.46;102997.19;5053075;28;20021;-35
2021/09/22 02:26:07;;;;;;;11.40;9.87;;;;;;;9.19;84.16;102970.59;5053253;28;20033;-36
2021/09/22 02:28:33;;;;;;;12.00;9.33;;;;;;;9.37;84.28;102992.84;5052736;28;20025;-35
2021/09/22 02:30:59;;;;;;;11.55;9.07;;;;;;;9.32;83.95;103002.44;5052940;28;20056;-35
2021/09/22 02:33:25;;;;;;;10.65;9.27;;;;;;;9.30;83.51;102997.22;5052978;28;20021;-36
2021/09/22 02:35:50;;;;;;;12.05;9.50;;;;;;;9.27;83.04;103002.94;5053155;28;20024;-35
2021/09/22 02:38:16;;;;;;;13.13;8.70;;;;;;;9.31;83.56;102992.66;5055268;28;20033;-35
2021/09/22 02:40:42;;;;;;;12.05;8.68;;;;;;;9.20;83.62;102988.47;5057414;28;20460;-35
2021/09/22 02:43:07;;;;;;;12.50;9.02;;;;;;;9.08;84.70;102985.28;5057026;28;20021;-35
2021/09/22 02:45:33;;;;;;;11.27;8.93;;;;;;;9.08;83.54;102979.88;5056919;28;20029;-35
2021/09/22 02:47:58;;;;;;;11.40;9.00;;;;;;;9.11;83.87;102987.63;5057022;28;20480;-35
2021/09/22 02:50:24;;;;;;;12.43;9.07;;;;;;;9.19;83.59;102992.19;5056475;28;20060;-35
2021/09/22 02:52:51;;;;;;;12.27;8.75;;;;;;;9.14;84.24;102991.84;5056698;28;20017;-35
2021/09/22 02:55:17;;;;;;;13.57;9.23;;;;;;;9.09;83.90;102989.66;5056552;28;20029;-35
2021/09/22 02:57:42;;;;;;;10.60;9.30;;;;;;;9.07;83.91;102980.03;5056861;28;20035;-35
2021/09/22 03:00:09;;;;;;;11.00;8.70;;;;;;;9.17;83.86;102989.63;5056690;28;20438;-35
2021/09/22 03:02:35;;;;;;;11.43;9.10;;;;;;;9.06;83.59;102986.44;5056162;28;20029;-35
2021/09/22 03:05:00;;;;;;;12.35;8.15;;;;;;;8.93;82.69;102984.22;5056687;28;20029;-35
2021/09/22 03:07:26;;;;;;;9.20;8.02;;;;;;;8.89;83.15;102972.97;5056848;28;20468;-35
2021/09/22 03:09:51;;;;;;;10.70;8.53;;;;;;;8.89;83.26;102972.97;5056815;28;20024;-35
2021/09/22 03:12:16;;;;;;;12.73;9.30;;;;;;;8.86;84.85;102967.03;5056428;28;20059;-35
2021/09/22 03:14:42;;;;;;;11.77;8.90;;;;;;;8.83;84.27;102972.75;5056549;28;20025;-35
2021/09/22 03:17:07;;;;;;;10.33;8.80;;;;;;;8.86;84.85;102973.28;5056551;28;20045;-35
2021/09/22 03:19:32;;;;;;;13.03;9.93;;;;;;;8.82;85.67;102966.53;5055103;28;20351;-35
2021/09/22 03:21:58;;;;;;;11.93;9.37;;;;;;;8.83;84.92;102965.50;5056484;28;20021;-35
2021/09/22 03:24:23;;;;;;;14.27;9.10;;;;;;;8.75;84.88;102950.19;5056338;28;20117;-35
2021/09/22 03:26:49;;;;;;;11.83;9.60;;;;;;;8.78;84.13;102967.88;5056663;28;20025;-35
2021/09/22 03:29:14;;;;;;;;;;;;;;;8.96;83.07;102965.84;5056682;28;20557;-35
2021/09/22 03:31:42;;;;;;;13.25;9.88;;;;;;;8.73;84.00;102952.19;5056554;28;19944;-35
2021/09/22 03:34:08;;;;;;;16.60;11.18;;;;;;;8.83;84.39;102962.81;5055750;28;20032;-35
2021/09/22 03:36:33;;;;;;;15.20;11.32;;;;;;;8.81;84.47;102967.53;5055994;28;20021;-35
2021/09/22 03:38:58;;;;;;;12.73;10.40;;;;;;;8.72;84.62;102955.06;5055849;28;20415;-35
2021/09/22 03:41:24;;;;;;;15.53;10.73;;;;;;;8.71;84.33;102948.81;5055929;28;20096;-35
2021/09/22 03:43:49;;;;;;;14.20;11.07;;;;;;;8.80;84.26;102962.31;5055769;28;20104;-35
2021/09/22 03:46:15;;;;;;;20.35;11.68;;;;;;;8.75;84.71;102960.13;5056253;28;20025;-35
2021/09/22 03:48:40;;;;;;;17.00;12.40;;;;;;;8.75;85.40;102958.28;5054905;28;20032;-35
2021/09/22 03:51:05;;;;;;;16.87;12.23;;;;;;;8.62;84.21;102940.88;5055965;28;20036;-35
2021/09/22 03:53:31;;;;;;;19.23;12.83;;;;;;;8.61;85.21;102941.91;5055676;28;20056;-35
2021/09/22 03:55:56;;;;;;;14.57;11.70;;;;;;;8.68;84.36;102951.00;5056086;28;20028;-35
2021/09/22 03:58:21;;;;;;;17.97;13.43;;;;;;;8.68;85.65;102951.84;5055414;28;20100;-35
2021/09/22 04:00:47;;;;;;;19.67;13.90;;;;;;;8.60;85.56;102942.91;5056147;28;20263;-35
2021/09/22 04:03:12;;;;;;;18.73;14.13;;;;;;;8.62;84.84;102957.91;5055438;28;20032;-35
2021/09/22 04:05:38;;;;;;;15.40;12.73;;;;;;;8.57;85.29;102945.94;5054639;28;20040;-35
2021/09/22 04:08:03;;;;;;;18.48;13.82;;;;;;;8.58;85.47;102956.56;5055943;28;20131;-35
2021/09/22 04:10:29;;;;;;;20.10;14.25;;;;;;;8.51;84.76;102951.00;5055344;28;20023;-36
2021/09/22 04:12:55;;;;;;;17.73;13.38;;;;;;;8.48;83.89;102948.63;5055385;28;20483;-36
2021/09/22 04:15:20;;;;;;;18.13;12.97;;;;;;;8.45;85.06;102932.78;5055507;28;20025;-36
2021/09/22 04:17:45;;;;;;;16.90;13.80;;;;;;;8.54;85.16;102951.66;5056323;28;20279;-36
2021/09/22 04:20:11;;;;;;;16.10;13.13;;;;;;;8.43;84.47;102934.78;5055190;28;20033;-36
2021/09/22 04:22:39;;;;;;;16.67;13.20;;;;;;;8.52;85.11;102949.97;5055463;28;20103;-36
2021/09/22 04:25:06;;;;;;;18.23;14.48;;;;;;;8.51;84.98;102947.44;5055316;28;20404;-36
2021/09/22 04:27:32;;;;;;;19.30;14.65;;;;;;;8.37;84.25;102935.47;5055112;28;20075;-36
2021/09/22 04:29:58;;;;;;;18.23;13.82;;;;;;;8.45;84.70;102948.13;5054648;28;20025;-36
2021/09/22 04:32:23;;;;;;;21.83;15.30;;;;;;;8.28;85.34;102914.84;5055180;28;20487;-36
2021/09/22 04:34:48;;;;;;;20.53;14.97;;;;;;;8.37;85.56;102930.06;5055045;28;20028;-36
2021/09/22 04:37:14;;;;;;;18.97;14.90;;;;;;;8.43;85.26;102947.44;5054859;28;20025;-36
2021/09/22 04:39:39;;;;;;;21.27;15.90;;;;;;;8.36;85.10;102928.38;5053222;28;20078;-36
2021/09/22 04:42:05;;;;;;;17.50;14.73;;;;;;;8.45;85.58;102942.72;5055513;28;20449;-36
2021/09/22 04:44:30;;;;;;;19.23;13.63;;;;;;;8.49;85.90;102949.44;5054439;28;20151;-36
2021/09/22 04:46:56;;;;;;;17.87;15.00;;;;;;;8.44;85.77;102947.28;5054537;28;20036;-36
2021/09/22 04:49:21;;;;;;;19.63;15.53;;;;;;;8.37;85.20;102948.94;5054216;28;20123;-36
2021/09/22 04:51:47;;;;;;;16.77;13.57;;;;;;;8.48;85.55;102951.31;5055105;28;20033;-36
2021/09/22 04:54:12;;;;;;;18.67;14.63;;;;;;;8.45;85.53;102954.34;5054488;28;20275;-36
2021/09/22 04:56:38;;;;;;;20.53;14.77;;;;;;;8.41;85.12;102955.69;5054523;28;20021;-36
2021/09/22 04:59:03;;;;;;;21.10;16.80;;;;;;;8.36;84.00;102960.75;5054424;28;20024;-36
2021/09/22 05:01:28;;;;;;;19.33;15.37;;;;;;;8.31;85.32;102941.50;5053831;28;20021;-36
2021/09/22 05:03:54;;;;;;;20.63;14.93;;;;;;;8.37;86.38;102962.41;5054828;28;20271;-36
2021/09/22 05:06:19;;;;;;;19.23;14.83;;;;;;;8.35;85.52;102964.41;5054765;28;20147;-35
2021/09/22 05:08:44;;;;;;;19.07;15.00;;;;;;;8.38;85.59;102968.66;5054563;28;20021;-36
2021/09/22 05:11:10;;;;;;;19.40;15.30;;;;;;;8.41;85.83;102973.72;5053940;28;20028;-36
2021/09/22 05:13:35;;;;;;;21.27;15.27;;;;;;;8.39;85.62;102975.72;5054236;28;20036;-36
2021/09/22 05:16:00;;;;;;;19.30;14.67;;;;;;;8.39;86.11;102976.56;5053903;28;20025;-36
2021/09/22 05:18:25;;;;;;;18.93;15.33;;;;;;;8.41;85.94;102979.13;5054087;28;20028;-36
2021/09/22 05:20:51;;;;;;;19.40;15.60;;;;;;;8.24;85.35;102962.00;5054578;28;20327;-36
2021/09/22 05:23:16;;;;;;;19.63;15.07;;;;;;;8.35;86.03;102977.91;5054228;28;20028;-36
2021/09/22 05:25:42;;;;;;;21.13;14.33;;;;;;;8.25;86.29;102961.88;5054014;28;20029;-36
2021/09/22 05:28:07;;;;;;;19.77;14.93;;;;;;;8.34;85.83;102981.56;5053912;28;20790;-36
2021/09/22 05:30:32;;;;;;;15.83;13.30;;;;;;;8.32;86.63;102966.59;5052442;28;20059;-36
2021/09/22 05:32:58;;;;;;;18.43;13.73;;;;;;;8.38;86.50;102982.13;5053588;28;20041;-36
2021/09/22 05:35:23;;;;;;;20.63;15.20;;;;;;;8.11;86.09;102951.72;5053357;28;20104;-36
2021/09/22 05:37:49;;;;;;;18.90;15.43;;;;;;;8.27;85.09;102984.09;5054039;28;20033;-36
2021/09/22 05:40:14;;;;;;;20.17;15.63;;;;;;;8.30;86.69;102988.31;5053527;28;20233;-35
2021/09/22 05:42:40;;;;;;;21.80;16.50;;;;;;;8.25;86.38;102980.72;5053954;28;20021;-36
2021/09/22 05:45:06;;;;;;;22.33;15.60;;;;;;;8.35;86.50;102993.22;5052973;28;20481;-36
2021/09/22 05:47:31;;;;;;;18.08;13.85;;;;;;;8.56;88.61;102987.41;5053338;28;20112;-36
2021/09/22 05:49:56;;;;;;;20.15;14.15;;;;;;;8.49;87.83;102977.28;5053240;28;20028;-36
2021/09/22 05:52:22;;;;;;;22.23;15.10;;;;;;;8.50;85.05;102999.72;5053741;28;20021;-36
2021/09/22 05:54:49;;;;;;;22.48;15.80;;;;;;;8.51;86.71;102996.84;5054086;28;20025;-35
2021/09/22 05:57:14;;;;;;;22.83;14.82;;;;;;;8.49;85.08;102982.69;5053520;28;20059;-36
2021/09/22 05:59:44;;;;;;;20.20;15.40;;;;;;;8.49;84.85;102993.47;5053440;28;20445;-36
2021/09/22 06:02:09;;;;;;;19.30;14.45;;;;;;;8.52;86.94;103003.91;5053071;28;20263;-36
2021/09/22 06:04:35;;;;;;;20.40;15.77;;;;;;;8.55;86.78;103007.31;5051461;28;20029;-36
2021/09/22 06:07:00;;;;;;;21.00;15.60;;;;;;;8.64;87.19;103017.94;5034826;28;20429;-36
2021/09/22 06:09:25;;;;;;;22.40;16.97;;;;;;;8.60;87.68;102991.47;5034858;28;20060;-36
2021/09/22 06:11:51;;;;;;;18.63;14.43;;;;;;;8.76;87.77;102999.56;5032698;28;20061;-36
2021/09/22 06:14:16;;;;;;;22.17;15.23;;;;;;;8.82;87.77;103009.69;5033234;28;20092;-36
2021/09/22 06:16:42;;;;;;;19.42;13.82;;;;;;;8.95;88.38;103010.06;5034270;28;20339;-36
2021/09/22 06:19:09;;;;;;;21.23;15.10;;;;;;;8.96;88.33;103008.19;5033126;28;20025;-35
2021/09/22 06:21:37;;;;;;;19.60;16.05;;;;;;;8.96;86.45;103009.03;5033634;28;20374;-36
2021/09/22 06:24:03;;;;;;;22.00;16.92;;;;;;;8.93;86.94;102998.59;5033037;28;20473;-36
2021/09/22 06:26:28;;;;;;;24.75;16.90;;;;;;;8.93;86.08;102995.91;5033567;28;20060;-36
2021/09/22 06:28:53;;;;;;;30.00;18.83;;;;;;;9.07;86.68;103012.41;5033235;28;20022;-36
2021/09/22 06:31:20;;;;;;;21.40;16.92;;;;;;;9.19;88.57;103000.28;5033591;28;20357;-36
2021/09/22 06:33:45;;;;;;;;;;;;;;;9.29;86.72;103009.03;5033685;28;20021;-36
2021/09/22 06:36:10;;;;;;;21.23;14.93;;;;;;;9.31;86.85;103014.25;5033164;28;20368;-36
2021/09/22 06:38:36;;;;;;;24.17;16.83;;;;;;;9.36;87.79;103015.44;5033148;28;20108;-36
2021/09/22 06:41:02;;;;;;;20.20;15.25;;;;;;;9.50;88.26;103028.25;5033434;28;20108;-36
2021/09/22 06:43:28;;;;;;;23.35;16.98;;;;;;;9.51;87.49;103016.44;5033134;28;20054;-36
2021/09/22 06:45:53;;;;;;;24.47;18.43;;;;;;;9.59;86.86;103021.00;5032467;28;20025;-36
2021/09/22 06:48:18;;;;;;;21.10;15.67;;;;;;;9.75;87.46;103018.25;5032792;28;20025;-36
2021/09/22 06:50:45;;;;;;;22.70;18.07;;;;;;;9.77;86.41;103018.09;5033216;28;20017;-36
2021/09/22 06:53:10;;;;;;;25.20;18.73;;;;;;;9.85;86.15;103018.06;5031895;28;20029;-35
2021/09/22 06:55:36;;;;;;;29.30;19.63;;;;;;;9.88;85.24;103017.72;5032635;28;20036;-35
2021/09/22 06:58:01;;;;;;;26.50;18.53;;;;;;;9.92;84.01;103020.94;5048572;28;20042;-35
2021/09/22 07:00:27;;;;;;;25.97;19.50;;;;;;;9.98;84.95;103018.34;5032502;28;20458;-35
2021/09/22 07:02:52;;;;;;;25.05;18.23;;;;;;;10.10;85.76;103013.41;5032941;28;20252;-35
2021/09/22 07:05:18;;;;;;;27.40;20.30;;;;;;;10.18;84.63;103017.94;5032875;28;20029;-35
2021/09/22 07:07:48;;;;;;;30.00;20.77;;;;;;;10.15;84.23;103002.06;5033423;28;20029;-35
2021/09/22 07:10:16;;;;;;;26.42;19.98;;;;;;;10.20;83.81;103007.78;5032483;28;20030;-35
2021/09/22 07:12:41;;;;;;;24.90;18.65;;;;;;;10.32;84.16;103017.25;5032934;28;20167;-35
2021/09/22 07:15:07;;;;;;;28.05;20.13;;;;;;;10.27;83.59;103022.34;5032556;28;20396;-35
2021/09/22 07:17:33;;;;;;;25.98;20.05;;;;;;;10.28;83.34;103018.59;5032499;28;20045;-35
2021/09/22 07:19:58;;;;;;;26.80;19.67;;;;;;;10.33;84.37;103010.81;5032611;28;20364;-35
2021/09/22 07:22:24;;;;;;;22.38;18.88;;;;;;;10.38;82.29;103021.94;5032961;28;20025;-34
2021/09/22 07:24:49;;;;;;;26.73;19.93;;;;;;;10.56;83.42;103030.63;5035745;28;20032;-35
2021/09/22 07:27:15;;;;;;;23.10;17.23;;;;;;;10.69;83.56;103032.78;5036474;28;20021;-35
2021/09/22 07:29:40;;;;;;;23.98;16.63;;;;;;;10.77;84.42;103024.59;5036071;28;20044;-35
2021/09/22 07:32:07;;;;;;;24.40;18.85;;;;;;;10.78;82.82;103025.44;5036105;28;20057;-35
2021/09/22 07:34:33;;;;;;;22.65;17.30;;;;;;;10.96;82.89;103025.97;5035988;28;20112;-35
2021/09/22 07:37:00;;;;;;;27.42;18.40;;;;;;;10.89;81.95;103014.22;5051999;28;20394;-35
2021/09/22 07:39:26;;;;;;;26.17;18.75;;;;;;;11.01;81.57;103026.28;5035774;28;20033;-35
2021/09/22 07:41:51;;;;;;;21.45;16.88;;;;;;;11.15;82.19;103032.78;5036658;28;20029;-35
2021/09/22 07:44:16;;;;;;;26.17;18.70;;;;;;;11.16;81.52;103022.78;5035987;28;20041;-35
2021/09/22 07:46:42;;;;;;;21.90;17.80;;;;;;;11.22;81.62;103022.88;5036302;28;20025;-35
2021/09/22 07:49:07;;;;;;;23.47;16.57;;;;;;;11.35;81.98;103017.69;5035806;28;20264;-35
2021/09/22 07:51:33;;;;;;;22.03;16.47;;;;;;;11.40;81.49;103002.78;5035729;28;20021;-35
2021/09/22 07:53:58;;;;;;;18.77;15.50;;;;;;;11.64;81.92;103016.06;5035549;28;20083;-35
2021/09/22 07:56:23;;;;;;;21.97;17.80;;;;;;;11.66;80.88;103019.44;5034875;28;20279;-35
2021/09/22 07:58:49;;;;;;;24.47;18.63;;;;;;;11.68;79.97;103001.13;5035519;28;20051;-36
2021/09/22 08:01:15;;;;;;;22.67;17.03;;;;;;;11.88;80.92;103011.44;5035597;28;20051;-35
2021/09/22 08:03:40;;;;;;;21.55;16.85;;;;;;;11.89;79.80;102992.28;5035188;28;20021;-35
2021/09/22 08:06:06;;;;;;;26.00;17.83;;;;;;;12.04;80.51;103008.53;5035169;28;20033;-35
2021/09/22 08:08:31;;;;;;;26.15;18.00;;;;;;;12.15;80.12;103004.50;5035379;28;20264;-35
2021/09/22 08:10:57;;;;;;;24.50;17.47;;;;;;;12.13;80.15;102993.00;5035911;28;20334;-35
2021/09/22 08:13:22;;;;;;;26.17;17.50;;;;;;;12.28;80.12;103002.81;5035339;28;20028;-36
2021/09/22 08:15:48;;;;;;;23.45;16.98;;;;;;;12.29;80.26;102980.06;5035745;28;20611;-35
2021/09/22 08:18:13;;;;;;;23.80;17.07;;;;;;;12.53;78.76;103011.44;5035541;28;20493;-35
2021/09/22 08:20:39;;;;;;;25.60;18.15;;;;;;;12.65;78.74;103003.66;5035292;28;20256;-35
2021/09/22 08:23:05;;;;;;;25.10;17.63;;;;;;;12.66;78.76;102999.06;5034901;28;20477;-35
2021/09/22 08:25:30;;;;;;;24.50;17.67;;;;;;;12.85;77.80;103012.00;5034888;28;20029;-35
2021/09/22 08:27:56;;;;;;;21.60;16.95;;;;;;;12.94;77.63;103005.44;5034885;28;20037;-35
2021/09/22 08:30:21;;;;;;;24.43;16.57;;;;;;;12.97;77.37;102991.44;5034765;28;20083;-35
2021/09/22 08:32:47;;;;;;;20.77;15.57;;;;;;;13.15;77.83;102999.97;5035845;28;20025;-35
2021/09/22 08:35:13;;;;;;;26.53;17.60;;;;;;;13.26;77.62;103008.66;5034528;28;20067;-35
2021/09/22 08:37:38;;;;;;;22.40;16.27;;;;;;;13.34;76.85;103006.63;5034914;28;20276;-35
2021/09/22 08:40:05;;;;;;;23.08;15.68;;;;;;;13.42;76.59;103011.09;5034461;28;20057;-35
2021/09/22 08:42:31;;;;;;;21.27;16.17;;;;;;;13.50;76.46;102997.34;5034654;28;20032;-35
2021/09/22 08:44:57;;;;;;;22.40;15.03;;;;;;;13.64;75.81;103010.00;5034682;28;20014;-35
2021/09/22 08:47:23;;;;;;;26.23;16.05;;;;;;;13.71;75.89;103014.63;5034807;28;20022;-36
2021/09/22 08:49:52;;;;;;;20.58;15.45;;;;;;;13.81;75.18;103017.81;5034638;28;20030;-35
2021/09/22 08:52:18;;;;;;;23.38;15.15;;;;;;;13.91;74.83;103008.28;5035041;28;20029;-35
2021/09/22 08:54:45;;;;;;;23.55;15.75;;;;;;;14.04;74.91;103003.94;5034249;28;20028;-36
2021/09/22 08:57:10;;;;;;;19.05;14.98;;;;;;;14.17;73.85;103004.84;5034400;28;20169;-35
2021/09/22 08:59:36;;;;;;;19.45;15.65;;;;;;;14.32;73.55;103003.88;5035188;28;20033;-35
2021/09/22 09:02:07;;;;;;;17.43;13.90;;;;;;;14.46;73.88;103008.31;5034559;28;20025;-35
2021/09/22 09:04:32;;;;;;;20.88;15.55;;;;;;;14.47;72.39;102981.94;5034350;28;20859;-35
2021/09/22 09:06:58;;;;;;;21.40;15.68;;;;;;;14.63;72.02;102996.03;5034125;28;20026;-35
2021/09/22 09:09:42;;;;;;;20.25;14.77;;;;;;;14.85;72.35;103006.78;5034193;28;20319;-35
2021/09/22 09:12:15;;;;;;;19.13;13.45;;;;;;;14.92;70.94;102991.25;5033949;28;20466;-35
2021/09/22 09:14:50;;;;;;;19.40;14.60;;;;;;;15.11;69.87;102993.16;5034069;28;20033;-35
2021/09/22 09:17:20;;;;;;;17.33;14.00;;;;;;;15.17;68.68;102989.59;5034716;28;20064;-35
2021/09/22 09:19:45;;;;;;;16.88;13.40;;;;;;;15.31;68.35;102992.31;5034553;28;20021;-35
2021/09/22 09:22:11;;;;;;;16.77;13.43;;;;;;;15.37;68.01;102980.56;5034578;28;20025;-35
2021/09/22 09:24:41;;;;;;;19.40;13.95;;;;;;;15.58;66.91;102984.97;5034125;28;20021;-35
2021/09/22 09:27:30;;;;;;;15.98;12.75;;;;;;;15.76;67.27;102982.44;5034247;28;20065;-35
2021/09/22 09:29:56;;;;;;;16.73;13.10;;;;;;;15.83;66.40;102966.06;5027036;28;20041;-35
2021/09/22 09:32:25;;;;;;;17.10;11.63;;;;;;;15.99;65.04;102981.94;5033847;28;20025;-35
2021/09/22 09:35:02;;;;;;;12.88;10.48;;;;;;;16.08;64.41;102979.81;5033644;28;20026;-35
2021/09/22 09:37:52;;;;;;;15.60;11.50;;;;;;;16.15;66.14;102983.34;5034147;28;20025;-35
2021/09/22 09:40:26;;;;;;;14.77;10.93;;;;;;;16.26;65.28;102987.31;5033769;28;20068;-35
2021/09/22 09:43:04;;;;;;;14.40;10.32;;;;;;;16.30;64.94;102983.06;5033991;28;20163;-35
2021/09/22 09:45:40;;;;;;;14.57;9.88;;;;;;;16.26;63.21;102968.22;5032675;28;20040;-35
2021/09/22 09:48:11;;;;;;;15.60;11.07;;;;;;;16.44;63.50;102979.22;5033470;28;20032;-35
2021/09/22 09:50:52;;;;;;;12.40;9.65;;;;;;;16.51;63.57;102974.56;5033202;28;20449;-35
2021/09/22 09:53:26;;;;;;;13.10;10.15;;;;;;;16.58;62.78;102972.63;5033909;28;20365;-35
2021/09/22 09:55:52;;;;;;;15.63;10.75;;;;;;;16.72;62.59;102965.22;5033385;28;20120;-35
2021/09/22 09:58:21;;;;;;;;;;;;;;;16.85;62.80;102962.41;5034023;28;20045;-35
2021/09/22 10:00:49;;;;;;;14.07;10.63;;;;;;;16.87;60.71;102967.63;5033511;28;19931;-35
2021/09/22 10:03:19;;;;;;;15.93;10.07;;;;;;;16.92;60.62;102965.06;5033646;28;20057;-35
2021/09/22 10:05:46;;;;;;;16.55;10.13;;;;;;;16.93;59.91;102955.81;5033436;28;20018;-35
2021/09/22 10:08:13;;;;;;;12.93;10.80;;;;;;;16.92;59.41;102949.50;5033801;28;20091;-35
2021/09/22 10:10:44;;;;;;;13.23;10.52;;;;;;;17.00;59.29;102962.06;5033077;28;20036;-35
2021/09/22 10:13:11;;;;;;;11.40;10.05;;;;;;;17.01;59.62;102963.75;5033239;28;20069;-35
2021/09/22 10:15:39;;;;;;;13.48;10.77;;;;;;;17.09;60.51;102963.47;5033098;28;20025;-35
2021/09/22 10:18:05;;;;;;;13.63;10.88;;;;;;;17.12;59.82;102956.72;5034239;28;20129;-35
2021/09/22 10:20:32;;;;;;;13.30;10.23;;;;;;;17.14;59.53;102940.94;5033156;28;20083;-35
2021/09/22 10:22:58;;;;;;;14.60;10.95;;;;;;;17.28;59.75;102941.66;5033193;28;20024;-35
2021/09/22 10:25:24;;;;;;;14.23;10.77;;;;;;;17.46;58.69;102933.44;5033067;28;20105;-35
2021/09/22 10:27:50;;;;;;;;;;;;;;;17.68;60.14;102942.91;5033877;28;20033;-36
2021/09/22 10:30:16;;;;;;;14.02;11.18;;;;;;;17.67;57.04;102941.25;5033365;28;19920;-35
2021/09/22 10:32:47;;;;;;;14.98;12.05;;;;;;;17.65;57.95;102931.56;5033054;28;20029;-35
2021/09/22 10:35:24;;;;;;;16.30;11.55;;;;;;;17.74;57.99;102927.50;5033357;28;20037;-37
2021/09/22 10:37:50;;;;;;;14.32;11.30;;;;;;;17.80;58.19;102939.44;5033363;28;20100;-35
2021/09/22 10:40:17;;;;;;;13.90;10.73;;;;;;;17.71;57.54;102928.78;5033248;28;20036;-37
2021/09/22 10:42:45;;;;;;;14.73;11.32;;;;;;;17.74;55.21;102924.75;5033523;28;20330;-34
2021/09/22 10:45:29;;;;;;;16.02;10.95;;;;;;;17.85;57.78;102915.78;5032808;28;20067;-34
2021/09/22 10:48:22;;;;;;;17.23;10.82;;;;;;;18.05;57.76;102926.47;5033713;28;20380;-34
2021/09/22 10:50:52;;;;;;;14.07;9.75;;;;;;;18.21;54.94;102928.59;5032838;28;20109;-34
2021/09/22 10:53:32;;;;;;;15.20;9.93;;;;;;;18.32;55.12;102926.97;5033004;28;20088;-34
2021/09/22 10:56:11;;;;;;;12.90;10.10;;;;;;;18.35;53.77;102922.91;5032315;28;20029;-36
2021/09/22 10:58:39;;;;;;;13.50;9.63;;;;;;;18.38;54.02;102920.53;5033974;28;20054;-34
2021/09/22 11:01:05;;;;;;;11.55;9.55;;;;;;;18.51;53.21;102923.09;5051951;28;20052;-34
2021/09/22 11:03:45;;;;;;;;;;;;;;;18.75;53.78;102931.41;5037756;28;20064;-35
2021/09/22 11:06:48;;;;;;;13.85;9.48;;;;;;;18.75;53.41;102926.75;5036517;28;19912;-34
2021/09/22 11:09:26;;;;;;;13.98;9.32;;;;;;;18.62;51.89;102896.78;5036690;28;20029;-34
2021/09/22 11:12:00;;;;;;;14.18;10.00;;;;;;;18.76;52.52;102897.44;5037172;28;20025;-34
2021/09/22 11:14:33;;;;;;;10.45;7.90;;;;;;;18.90;49.95;102909.03;5036601;28;20029;-34
2021/09/22 11:17:37;;;;;;;11.15;8.40;;;;;;;18.94;51.29;102902.84;5036712;28;20046;-34
2021/09/22 11:20:04;;;;;;;7.18;5.90;;;;;;;18.97;48.53;102904.25;4995164;28;20057;-35